sensor_id;sensor_type;location;lat;lon;timestamp;pressure;altitude;pressure_sealevel;temperature;humidity
39949;BME280;29070;48.102;-1.652;2022-09-03T00:03:02;100676.31;;;20.24;74.80
39949;BME280;29070;48.102;-1.652;2022-09-03T00:08:14;100669.66;;;20.26;74.85
39949;BME280;29070;48.102;-1.652;2022-09-03T00:13:31;100677.38;;;20.28;75.02
39949;BME280;29070;48.102;-1.652;2022-09-03T00:18:33;100670.47;;;20.27;74.76
39949;BME280;29070;48.102;-1.652;2022-09-03T00:23:39;100664.31;;;20.21;75.06
39949;BME280;29070;48.102;-1.652;2022-09-03T00:28:46;100656.84;;;20.18;75.00
39949;BME280;29070;48.102;-1.652;2022-09-03T00:33:51;100651.75;;;20.11;75.05
39949;BME280;29070;48.102;-1.652;2022-09-03T00:38:57;100651.19;;;20.04;75.44
39949;BME280;29070;48.102;-1.652;2022-09-03T00:49:49;100645.81;;;19.94;75.79
39949;BME280;29070;48.102;-1.652;2022-09-03T00:55:21;100644.97;;;19.88;75.54
39949;BME280;29070;48.102;-1.652;2022-09-03T01:00:21;100633.78;;;19.86;75.63
39949;BME280;29070;48.102;-1.652;2022-09-03T01:05:38;100640.69;;;19.82;75.94
39949;BME280;29070;48.102;-1.652;2022-09-03T01:10:55;100633.50;;;19.83;76.29
39949;BME280;29070;48.102;-1.652;2022-09-03T01:32:20;100637.00;;;19.93;77.20
39949;BME280;29070;48.102;-1.652;2022-09-03T01:42:47;100645.81;;;19.99;77.06
39949;BME280;29070;48.102;-1.652;2022-09-03T02:03:40;100629.00;;;19.88;77.69
39949;BME280;29070;48.102;-1.652;2022-09-03T02:08:41;100633.00;;;19.86;77.00
39949;BME280;29070;48.102;-1.652;2022-09-03T02:13:45;100618.59;;;19.87;77.21
39949;BME280;29070;48.102;-1.652;2022-09-03T02:18:50;100619.94;;;19.84;77.08
39949;BME280;29070;48.102;-1.652;2022-09-03T02:23:52;100621.25;;;19.87;77.18
39949;BME280;29070;48.102;-1.652;2022-09-03T02:28:53;100619.66;;;19.86;77.25
39949;BME280;29070;48.102;-1.652;2022-09-03T02:33:56;100603.69;;;19.86;77.38
39949;BME280;29070;48.102;-1.652;2022-09-03T02:38:57;100616.47;;;19.84;77.46
39949;BME280;29070;48.102;-1.652;2022-09-03T02:49:02;100626.56;;;19.76;77.35
39949;BME280;29070;48.102;-1.652;2022-09-03T02:54:03;100636.03;;;19.67;77.26
39949;BME280;29070;48.102;-1.652;2022-09-03T02:59:05;100624.28;;;19.58;77.44
39949;BME280;29070;48.102;-1.652;2022-09-03T03:04:05;100637.28;;;19.54;77.66
39949;BME280;29070;48.102;-1.652;2022-09-03T03:09:06;100624.22;;;19.48;77.97
39949;BME280;29070;48.102;-1.652;2022-09-03T03:14:07;100631.91;;;19.44;78.07
39949;BME280;29070;48.102;-1.652;2022-09-03T03:19:08;100634.84;;;19.42;78.06
39949;BME280;29070;48.102;-1.652;2022-09-03T03:24:08;100639.59;;;19.40;78.38
39949;BME280;29070;48.102;-1.652;2022-09-03T03:29:13;100626.81;;;19.37;78.45
39949;BME280;29070;48.102;-1.652;2022-09-03T03:34:14;100623.09;;;19.38;78.43
39949;BME280;29070;48.102;-1.652;2022-09-03T03:39:14;100628.44;;;19.43;78.54
39949;BME280;29070;48.102;-1.652;2022-09-03T03:44:14;100624.94;;;19.38;78.30
39949;BME280;29070;48.102;-1.652;2022-09-03T03:49:16;100620.66;;;19.32;78.49
39949;BME280;29070;48.102;-1.652;2022-09-03T03:54:17;100617.47;;;19.35;78.90
39949;BME280;29070;48.102;-1.652;2022-09-03T03:59:17;100613.53;;;19.42;79.02
39949;BME280;29070;48.102;-1.652;2022-09-03T04:04:17;100610.31;;;19.40;79.05
39949;BME280;29070;48.102;-1.652;2022-09-03T04:09:18;100606.03;;;19.34;79.13
39949;BME280;29070;48.102;-1.652;2022-09-03T04:14:18;100611.59;;;19.33;79.21
39949;BME280;29070;48.102;-1.652;2022-09-03T04:19:19;100612.69;;;19.32;79.37
39949;BME280;29070;48.102;-1.652;2022-09-03T04:24:21;100609.72;;;19.33;79.51
39949;BME280;29070;48.102;-1.652;2022-09-03T04:29:21;100613.69;;;19.26;79.27
39949;BME280;29070;48.102;-1.652;2022-09-03T04:34:22;100617.63;;;19.18;79.38
39949;BME280;29070;48.102;-1.652;2022-09-03T04:39:22;100612.50;;;19.11;79.42
39949;BME280;29070;48.102;-1.652;2022-09-03T04:44:22;100612.22;;;19.08;79.48
39949;BME280;29070;48.102;-1.652;2022-09-03T04:49:23;100626.59;;;19.07;79.81
39949;BME280;29070;48.102;-1.652;2022-09-03T04:54:24;100622.81;;;19.02;79.93
39949;BME280;29070;48.102;-1.652;2022-09-03T04:59:24;100623.06;;;19.01;80.17
39949;BME280;29070;48.102;-1.652;2022-09-03T05:04:24;100623.34;;;19.04;80.26
39949;BME280;29070;48.102;-1.652;2022-09-03T05:09:25;100623.34;;;18.99;80.16
39949;BME280;29070;48.102;-1.652;2022-09-03T05:14:25;100634.81;;;19.05;80.35
39949;BME280;29070;48.102;-1.652;2022-09-03T05:19:25;100630.31;;;19.05;80.45
39949;BME280;29070;48.102;-1.652;2022-09-03T05:24:26;100627.69;;;19.11;80.46
39949;BME280;29070;48.102;-1.652;2022-09-03T05:29:26;100627.63;;;19.05;80.56
39949;BME280;29070;48.102;-1.652;2022-09-03T05:34:26;100627.69;;;19.11;80.93
39949;BME280;29070;48.102;-1.652;2022-09-03T05:39:27;100628.47;;;19.11;80.75
39949;BME280;29070;48.102;-1.652;2022-09-03T05:44:27;100645.22;;;19.12;80.57
39949;BME280;29070;48.102;-1.652;2022-09-03T05:49:29;100644.69;;;19.10;80.80
39949;BME280;29070;48.102;-1.652;2022-09-03T05:54:29;100651.59;;;19.05;80.67
39949;BME280;29070;48.102;-1.652;2022-09-03T05:59:30;100654.75;;;19.02;80.73
39949;BME280;29070;48.102;-1.652;2022-09-03T06:04:30;100659.50;;;19.00;80.88
39949;BME280;29070;48.102;-1.652;2022-09-03T06:09:31;100665.31;;;18.97;80.88
39949;BME280;29070;48.102;-1.652;2022-09-03T06:14:31;100670.66;;;18.97;80.87
39949;BME280;29070;48.102;-1.652;2022-09-03T06:19:32;100678.38;;;18.99;81.04
39949;BME280;29070;48.102;-1.652;2022-09-03T06:24:32;100676.78;;;18.98;81.07
39949;BME280;29070;48.102;-1.652;2022-09-03T06:29:32;100686.00;;;18.90;80.99
39949;BME280;29070;48.102;-1.652;2022-09-03T06:34:34;100677.19;;;18.84;80.81
39949;BME280;29070;48.102;-1.652;2022-09-03T06:39:34;100687.47;;;18.81;80.78
39949;BME280;29070;48.102;-1.652;2022-09-03T06:44:35;100692.34;;;18.84;80.86
39949;BME280;29070;48.102;-1.652;2022-09-03T06:49:35;100691.03;;;18.86;80.77
39949;BME280;29070;48.102;-1.652;2022-09-03T06:54:37;100696.66;;;18.90;80.76
39949;BME280;29070;48.102;-1.652;2022-09-03T06:59:38;100707.84;;;18.92;80.94
39949;BME280;29070;48.102;-1.652;2022-09-03T07:04:39;100714.34;;;19.01;80.97
39949;BME280;29070;48.102;-1.652;2022-09-03T07:09:39;100703.16;;;19.04;80.84
39949;BME280;29070;48.102;-1.652;2022-09-03T07:14:39;100705.28;;;19.02;80.66
39949;BME280;29070;48.102;-1.652;2022-09-03T07:19:40;100706.78;;;19.20;81.00
39949;BME280;29070;48.102;-1.652;2022-09-03T07:24:40;100704.47;;;19.29;81.03
39949;BME280;29070;48.102;-1.652;2022-09-03T07:29:42;100709.91;;;19.45;80.91
39949;BME280;29070;48.102;-1.652;2022-09-03T07:34:42;100711.34;;;19.57;80.71
39949;BME280;29070;48.102;-1.652;2022-09-03T07:39:43;100701.53;;;19.63;80.53
39949;BME280;29070;48.102;-1.652;2022-09-03T07:44:43;100716.97;;;19.61;80.11
39949;BME280;29070;48.102;-1.652;2022-09-03T07:49:43;100723.34;;;19.60;80.06
39949;BME280;29070;48.102;-1.652;2022-09-03T07:54:44;100729.78;;;19.64;80.10
39949;BME280;29070;48.102;-1.652;2022-09-03T07:59:44;100734.06;;;19.70;80.03
39949;BME280;29070;48.102;-1.652;2022-09-03T08:04:45;100736.06;;;19.85;80.08
39949;BME280;29070;48.102;-1.652;2022-09-03T08:09:45;100734.81;;;19.98;79.74
39949;BME280;29070;48.102;-1.652;2022-09-03T08:14:46;100743.94;;;20.07;79.71
39949;BME280;29070;48.102;-1.652;2022-09-03T08:19:47;100748.19;;;20.08;79.18
39949;BME280;29070;48.102;-1.652;2022-09-03T08:24:47;100748.78;;;20.21;78.90
39949;BME280;29070;48.102;-1.652;2022-09-03T08:29:47;100755.78;;;20.27;78.83
39949;BME280;29070;48.102;-1.652;2022-09-03T08:34:48;100762.94;;;20.21;78.26
39949;BME280;29070;48.102;-1.652;2022-09-03T08:39:49;100768.53;;;20.19;77.93
39949;BME280;29070;48.102;-1.652;2022-09-03T08:44:59;100767.72;;;20.24;77.65
39949;BME280;29070;48.102;-1.652;2022-09-03T09:11:36;100811.34;;;20.50;76.31
39949;BME280;29070;48.102;-1.652;2022-09-03T09:22:10;100820.28;;;20.82;75.83
39949;BME280;29070;48.102;-1.652;2022-09-03T09:27:14;100822.75;;;20.93;75.23
39949;BME280;29070;48.102;-1.652;2022-09-03T09:32:18;100820.09;;;20.99;74.97
39949;BME280;29070;48.102;-1.652;2022-09-03T09:37:19;100820.69;;;21.16;75.16
39949;BME280;29070;48.102;-1.652;2022-09-03T09:42:21;100821.56;;;21.47;74.73
39949;BME280;29070;48.102;-1.652;2022-09-03T09:47:30;100834.13;;;21.52;73.78
39949;BME280;29070;48.102;-1.652;2022-09-03T09:52:34;100831.75;;;21.61;73.37
39949;BME280;29070;48.102;-1.652;2022-09-03T09:57:34;100839.22;;;21.69;73.03
39949;BME280;29070;48.102;-1.652;2022-09-03T10:02:37;100833.06;;;21.89;72.46
39949;BME280;29070;48.102;-1.652;2022-09-03T10:07:39;100834.16;;;21.93;71.43
39949;BME280;29070;48.102;-1.652;2022-09-03T10:13:08;100823.47;;;21.83;69.93
39949;BME280;29070;48.102;-1.652;2022-09-03T10:18:39;100830.97;;;21.91;69.53
39949;BME280;29070;48.102;-1.652;2022-09-03T10:28:50;100831.97;;;22.26;70.26
39949;BME280;29070;48.102;-1.652;2022-09-03T10:33:57;100833.03;;;22.45;69.65
39949;BME280;29070;48.102;-1.652;2022-09-03T10:39:18;100832.25;;;22.40;68.03
39949;BME280;29070;48.102;-1.652;2022-09-03T10:55:22;100828.13;;;22.73;67.26
39949;BME280;29070;48.102;-1.652;2022-09-03T11:00:27;100822.44;;;22.90;67.76
39949;BME280;29070;48.102;-1.652;2022-09-03T11:10:44;100809.84;;;22.91;64.48
39949;BME280;29070;48.102;-1.652;2022-09-03T11:20:54;100816.81;;;22.92;64.74
39949;BME280;29070;48.102;-1.652;2022-09-03T11:26:06;100809.81;;;22.96;63.23
39949;BME280;29070;48.102;-1.652;2022-09-03T11:36:12;100816.53;;;22.93;62.87
39949;BME280;29070;48.102;-1.652;2022-09-03T11:41:14;100806.56;;;23.04;62.33
39949;BME280;29070;48.102;-1.652;2022-09-03T11:56:31;100807.13;;;22.96;60.78
39949;BME280;29070;48.102;-1.652;2022-09-03T12:01:33;100800.09;;;23.15;59.87
39949;BME280;29070;48.102;-1.652;2022-09-03T12:23:32;100806.44;;;23.64;56.87
39949;BME280;29070;48.102;-1.652;2022-09-03T12:28:37;100797.16;;;23.86;58.06
39949;BME280;29070;48.102;-1.652;2022-09-03T12:33:40;100798.19;;;23.95;57.29
39949;BME280;29070;48.102;-1.652;2022-09-03T12:38:41;100820.38;;;24.01;56.92
39949;BME280;29070;48.102;-1.652;2022-09-03T12:43:49;100807.56;;;23.92;53.27
39949;BME280;29070;48.102;-1.652;2022-09-03T12:48:55;100819.00;;;24.03;54.90
39949;BME280;29070;48.102;-1.652;2022-09-03T12:53:55;100816.03;;;24.05;55.13
39949;BME280;29070;48.102;-1.652;2022-09-03T12:58:59;100821.44;;;24.29;54.13
39949;BME280;29070;48.102;-1.652;2022-09-03T13:09:07;100803.19;;;24.55;52.60
39949;BME280;29070;48.102;-1.652;2022-09-03T13:14:10;100802.56;;;24.82;52.20
39949;BME280;29070;48.102;-1.652;2022-09-03T13:19:34;100791.47;;;24.89;50.86
39949;BME280;29070;48.102;-1.652;2022-09-03T13:30:02;100802.44;;;25.49;51.23
39949;BME280;29070;48.102;-1.652;2022-09-03T13:40:41;100802.22;;;25.46;48.25
39949;BME280;29070;48.102;-1.652;2022-09-03T13:45:51;100797.16;;;25.44;48.32
39949;BME280;29070;48.102;-1.652;2022-09-03T13:51:27;100788.44;;;25.15;45.38
39949;BME280;29070;48.102;-1.652;2022-09-03T13:56:48;100790.31;;;25.14;47.97
39949;BME280;29070;48.102;-1.652;2022-09-03T14:07:08;100794.91;;;24.76;47.93
39949;BME280;29070;48.102;-1.652;2022-09-03T14:12:18;100800.41;;;24.84;48.13
39949;BME280;29070;48.102;-1.652;2022-09-03T14:22:57;100795.78;;;25.28;46.88
39949;BME280;29070;48.102;-1.652;2022-09-03T14:28:24;100805.56;;;25.19;45.72
39949;BME280;29070;48.102;-1.652;2022-09-03T14:38:48;100815.00;;;25.16;46.85
39949;BME280;29070;48.102;-1.652;2022-09-03T14:49:14;100806.78;;;25.07;45.42
39949;BME280;29070;48.102;-1.652;2022-09-03T15:00:01;100814.44;;;24.57;45.84
39949;BME280;29070;48.102;-1.652;2022-09-03T15:15:53;100805.91;;;24.50;45.72
39949;BME280;29070;48.102;-1.652;2022-09-03T15:21:24;100811.84;;;24.47;45.40
39949;BME280;29070;48.102;-1.652;2022-09-03T15:37:01;100800.81;;;24.48;45.26
39949;BME280;29070;48.102;-1.652;2022-09-03T15:42:14;100809.34;;;24.55;45.31
39949;BME280;29070;48.102;-1.652;2022-09-03T15:52:54;100818.13;;;24.37;45.38
39949;BME280;29070;48.102;-1.652;2022-09-03T15:58:26;100815.16;;;24.39;45.56
39949;BME280;29070;48.102;-1.652;2022-09-03T16:04:02;100817.78;;;24.44;45.50
39949;BME280;29070;48.102;-1.652;2022-09-03T16:14:44;100821.34;;;24.10;44.98
39949;BME280;29070;48.102;-1.652;2022-09-03T16:19:56;100815.06;;;23.95;45.67
39949;BME280;29070;48.102;-1.652;2022-09-03T16:25:06;100816.78;;;23.81;45.88
39949;BME280;29070;48.102;-1.652;2022-09-03T16:30:32;100821.84;;;23.88;46.12
39949;BME280;29070;48.102;-1.652;2022-09-03T16:41:13;100817.75;;;23.95;46.57
39949;BME280;29070;48.102;-1.652;2022-09-03T16:46:24;100814.19;;;24.00;46.43
39949;BME280;29070;48.102;-1.652;2022-09-03T16:56:53;100816.13;;;23.94;47.03
39949;BME280;29070;48.102;-1.652;2022-09-03T17:13:07;100815.75;;;23.77;47.32
39949;BME280;29070;48.102;-1.652;2022-09-03T17:23:47;100827.75;;;23.50;48.10
39949;BME280;29070;48.102;-1.652;2022-09-03T17:29:15;100834.84;;;23.31;48.46
39949;BME280;29070;48.102;-1.652;2022-09-03T17:34:27;100843.97;;;23.19;48.20
39949;BME280;29070;48.102;-1.652;2022-09-03T17:49:47;100836.44;;;22.67;49.16
39949;BME280;29070;48.102;-1.652;2022-09-03T17:54:58;100835.16;;;22.54;50.30
39949;BME280;29070;48.102;-1.652;2022-09-03T18:00:10;100832.50;;;22.38;50.43
39949;BME280;29070;48.102;-1.652;2022-09-03T18:05:21;100829.84;;;22.28;50.86
39949;BME280;29070;48.102;-1.652;2022-09-03T18:20:46;100841.34;;;21.98;51.82
39949;BME280;29070;48.102;-1.652;2022-09-03T18:26:11;100842.69;;;21.85;51.56
39949;BME280;29070;48.102;-1.652;2022-09-03T18:31:33;100849.38;;;21.77;51.89
39949;BME280;29070;48.102;-1.652;2022-09-03T18:36:56;100844.81;;;21.67;52.13
39949;BME280;29070;48.102;-1.652;2022-09-03T19:10:01;100880.31;;;20.79;54.59
39949;BME280;29070;48.102;-1.652;2022-09-03T19:15:26;100888.25;;;20.69;54.66
39949;BME280;29070;48.102;-1.652;2022-09-03T19:32:10;100902.63;;;20.25;55.73
39949;BME280;29070;48.102;-1.652;2022-09-03T19:48:51;100900.75;;;19.93;57.03
39949;BME280;29070;48.102;-1.652;2022-09-03T19:54:12;100910.03;;;19.86;56.65
39949;BME280;29070;48.102;-1.652;2022-09-03T19:59:35;100905.06;;;19.72;57.19
39949;BME280;29070;48.102;-1.652;2022-09-03T20:05:00;100904.97;;;19.62;57.50
39949;BME280;29070;48.102;-1.652;2022-09-03T20:10:21;100901.13;;;19.53;57.59
39949;BME280;29070;48.102;-1.652;2022-09-03T20:15:30;100907.47;;;19.47;57.91
39949;BME280;29070;48.102;-1.652;2022-09-03T20:20:45;100897.75;;;19.35;58.99
39949;BME280;29070;48.102;-1.652;2022-09-03T20:26:00;100896.88;;;19.30;58.74
39949;BME280;29070;48.102;-1.652;2022-09-03T20:31:19;100902.09;;;19.19;59.75
39949;BME280;29070;48.102;-1.652;2022-09-03T20:42:08;100913.09;;;19.06;60.45
39949;BME280;29070;48.102;-1.652;2022-09-03T20:52:31;100920.56;;;18.87;60.32
39949;BME280;29070;48.102;-1.652;2022-09-03T21:03:03;100918.69;;;18.71;60.84
39949;BME280;29070;48.102;-1.652;2022-09-03T21:29:45;100945.56;;;18.35;62.31
39949;BME280;29070;48.102;-1.652;2022-09-03T21:35:03;100943.63;;;18.31;62.92
39949;BME280;29070;48.102;-1.652;2022-09-03T21:40:10;100936.84;;;18.23;62.61
39949;BME280;29070;48.102;-1.652;2022-09-03T21:50:28;100950.66;;;18.08;63.20
39949;BME280;29070;48.102;-1.652;2022-09-03T22:01:01;100957.91;;;17.96;63.99
39949;BME280;29070;48.102;-1.652;2022-09-03T22:06:21;100954.59;;;17.88;64.09
39949;BME280;29070;48.102;-1.652;2022-09-03T22:11:33;100957.13;;;17.83;64.63
39949;BME280;29070;48.102;-1.652;2022-09-03T22:21:56;100962.94;;;17.68;64.99
39949;BME280;29070;48.102;-1.652;2022-09-03T22:49:09;100979.72;;;17.45;65.48
39949;BME280;29070;48.102;-1.652;2022-09-03T22:54:26;100987.84;;;17.39;65.91
39949;BME280;29070;48.102;-1.652;2022-09-03T22:59:37;100981.59;;;17.33;66.31
39949;BME280;29070;48.102;-1.652;2022-09-03T23:05:02;100992.22;;;17.33;66.53
39949;BME280;29070;48.102;-1.652;2022-09-03T23:10:11;100991.06;;;17.29;66.67
39949;BME280;29070;48.102;-1.652;2022-09-03T23:15:19;100993.16;;;17.27;66.92
39949;BME280;29070;48.102;-1.652;2022-09-03T23:20:24;100989.13;;;17.24;67.00
39949;BME280;29070;48.102;-1.652;2022-09-03T23:25:39;100995.69;;;17.22;67.52
39949;BME280;29070;48.102;-1.652;2022-09-03T23:30:41;100998.78;;;17.19;67.14
39949;BME280;29070;48.102;-1.652;2022-09-03T23:47:33;101005.72;;;17.08;68.34
39949;BME280;29070;48.102;-1.652;2022-09-03T23:57:41;101005.28;;;16.99;67.87
